createdAt,value
2023-10-25T00:00:10.168Z,77.16
2023-10-25T00:05:11.692Z,77.50
2023-10-25T00:10:13.132Z,77.35
2023-10-25T00:15:14.546Z,77.13
2023-10-25T00:20:15.944Z,77.44
2023-10-25T00:25:17.349Z,77.48
2023-10-25T00:30:18.830Z,77.03
2023-10-25T00:35:20.266Z,77.07
2023-10-25T00:40:21.698Z,77.49
2023-10-25T00:45:23.183Z,77.42
2023-10-25T00:50:24.559Z,76.99
2023-10-25T00:55:25.990Z,77.38
2023-10-25T01:00:28.129Z,77.03
2023-10-25T01:05:30.815Z,77.05
2023-10-25T01:10:32.304Z,77.01
2023-10-25T01:15:33.761Z,77.24
2023-10-25T01:20:35.192Z,77.32
2023-10-25T01:25:36.777Z,76.97
2023-10-25T01:30:38.428Z,77.21
2023-10-25T01:35:39.907Z,77.31
2023-10-25T01:40:41.305Z,77.02
2023-10-25T01:45:42.812Z,76.82
2023-10-25T01:50:44.304Z,76.80
2023-10-25T01:55:46.890Z,76.91
2023-10-25T02:00:48.402Z,77.17
2023-10-25T02:05:49.794Z,77.52
2023-10-25T02:10:51.169Z,77.71
2023-10-25T02:15:52.635Z,77.11
2023-10-25T02:20:54.008Z,77.31
2023-10-25T02:25:55.365Z,78.05
2023-10-25T02:30:56.766Z,77.46
2023-10-25T02:35:58.152Z,77.52
2023-10-25T02:40:59.525Z,77.92
2023-10-25T02:46:07.056Z,78.05
2023-10-25T02:51:08.621Z,77.90
2023-10-25T02:56:09.987Z,78.05
2023-10-25T03:01:21.901Z,77.57
2023-10-25T03:06:23.705Z,77.58
2023-10-25T03:11:25.172Z,77.71
2023-10-25T03:16:26.660Z,77.80
2023-10-25T03:21:28.248Z,77.78
2023-10-25T03:26:29.653Z,77.46
2023-10-25T03:31:31.135Z,77.76
2023-10-25T03:36:32.582Z,78.74
2023-10-25T03:41:34.096Z,78.59
2023-10-25T03:46:35.670Z,78.19
2023-10-25T03:51:37.147Z,78.00
2023-10-25T03:56:38.510Z,77.98
2023-10-25T04:01:40.302Z,77.76
2023-10-25T04:06:41.813Z,77.84
2023-10-25T04:11:43.201Z,77.84
2023-10-25T04:16:44.654Z,77.52
2023-10-25T04:21:46.148Z,77.63
2023-10-25T04:26:47.768Z,77.57
2023-10-25T04:31:49.222Z,77.87
2023-10-25T04:36:50.821Z,77.29
2023-10-25T04:41:52.256Z,77.49
2023-10-25T04:46:53.661Z,77.46
2023-10-25T04:51:55.370Z,77.54
2023-10-25T04:56:59.077Z,77.57
2023-10-25T05:02:00.517Z,77.29
2023-10-25T05:07:02.262Z,77.57
2023-10-25T05:12:08.038Z,77.30
2023-10-25T05:17:10.597Z,77.56
2023-10-25T05:22:14.652Z,77.81
2023-10-25T05:27:16.636Z,77.60
2023-10-25T05:32:20.582Z,77.92
2023-10-25T05:37:22.333Z,77.41
2023-10-25T05:42:28.290Z,77.61
2023-10-25T05:47:30.233Z,77.93
2023-10-25T05:52:31.990Z,77.62
2023-10-25T05:57:33.661Z,77.41
2023-10-25T06:02:35.454Z,77.61
2023-10-25T06:07:37.184Z,77.31
2023-10-25T06:12:41.828Z,77.46
2023-10-25T06:17:43.526Z,77.16
2023-10-25T06:22:44.917Z,76.83
2023-10-25T06:27:46.290Z,77.03
2023-10-25T06:32:47.745Z,77.13
2023-10-25T06:37:49.544Z,77.02
2023-10-25T06:42:53.758Z,77.11
2023-10-25T06:47:55.463Z,77.11
2023-10-25T06:52:57.302Z,76.81
2023-10-25T06:57:59.035Z,77.09
2023-10-25T07:03:04.127Z,77.05
2023-10-25T07:08:06.039Z,76.87
2023-10-25T07:13:07.564Z,76.94
2023-10-25T07:18:09.068Z,76.91
2023-10-25T07:23:10.515Z,76.91
2023-10-25T07:28:12.266Z,76.98
2023-10-25T07:33:14.294Z,77.15
2023-10-25T07:38:15.953Z,77.19
2023-10-25T07:43:17.425Z,77.22
2023-10-25T07:48:18.843Z,77.27
2023-10-25T07:53:20.228Z,77.10
2023-10-25T07:58:27.529Z,76.95
2023-10-25T08:03:30.458Z,76.85
2023-10-25T08:08:33.005Z,76.99
2023-10-25T08:13:36.053Z,77.04
2023-10-25T08:18:37.469Z,77.13
2023-10-25T08:23:39.389Z,76.85
2023-10-25T08:28:40.840Z,76.52
2023-10-25T08:33:42.349Z,76.33
2023-10-25T08:38:43.746Z,76.36
2023-10-25T08:43:45.224Z,76.16
2023-10-25T08:48:46.922Z,76.12
2023-10-25T08:53:51.302Z,75.52
2023-10-25T08:58:53.077Z,75.36
2023-10-25T09:03:54.649Z,75.40
2023-10-25T09:09:00.927Z,75.31
2023-10-25T09:14:02.345Z,75.15
2023-10-25T09:19:04.811Z,75.27
2023-10-25T09:24:10.301Z,75.07
2023-10-25T09:29:13.845Z,75.04
2023-10-25T09:34:16.260Z,74.97
2023-10-25T09:39:17.669Z,75.23
2023-10-25T09:44:23.553Z,75.34
2023-10-25T09:49:30.169Z,75.03
2023-10-25T09:54:34.130Z,74.94
2023-10-25T09:59:36.741Z,74.86
2023-10-25T10:04:50.941Z,74.39
2023-10-25T10:10:13.696Z,74.57
2023-10-25T10:15:15.719Z,74.34
2023-10-25T10:20:25.617Z,74.16
2023-10-25T10:25:46.592Z,74.11
2023-10-25T10:30:48.756Z,74.16
2023-10-25T10:35:50.355Z,74.90
2023-10-25T10:40:54.375Z,75.48
2023-10-25T10:45:55.833Z,76.27
2023-10-25T10:50:57.231Z,76.06
2023-10-25T10:55:58.721Z,76.45
2023-10-25T11:01:00.185Z,76.53
2023-10-25T11:06:04.559Z,76.70
2023-10-25T11:11:06.811Z,77.42
2023-10-25T11:16:10.062Z,77.30
2023-10-25T11:21:15.672Z,77.41
2023-10-25T11:26:17.472Z,77.64
2023-10-25T11:31:19.135Z,77.75
2023-10-25T11:36:20.552Z,77.78
2023-10-25T11:41:22.153Z,78.14
2023-10-25T11:46:25.173Z,78.48
2023-10-25T11:51:26.617Z,78.62
2023-10-25T11:56:28.337Z,78.83
2023-10-25T12:01:29.788Z,78.76
2023-10-25T12:06:31.398Z,78.71
2023-10-25T12:11:32.990Z,78.82
2023-10-25T12:16:34.378Z,78.87
2023-10-25T12:21:35.748Z,79.53
2023-10-25T12:26:37.138Z,79.79
2023-10-25T12:31:38.626Z,79.79
2023-10-25T12:36:40.153Z,79.88
2023-10-25T12:41:41.553Z,79.92
2023-10-25T12:46:44.834Z,80.43
2023-10-25T12:51:48.502Z,80.53
2023-10-25T12:56:50.006Z,80.54
2023-10-25T13:01:53.548Z,80.76
2023-10-25T13:06:55.489Z,80.56
2023-10-25T13:11:56.893Z,80.96
2023-10-25T13:17:12.649Z,80.99
2023-10-25T13:22:15.313Z,81.37
2023-10-25T13:27:16.816Z,81.62
2023-10-25T13:32:18.301Z,81.35
2023-10-25T13:37:19.827Z,81.44
2023-10-25T13:42:22.134Z,81.55
2023-10-25T13:47:23.619Z,81.52
2023-10-25T13:52:25.233Z,81.73
2023-10-25T13:57:26.643Z,81.63
2023-10-25T14:02:28.080Z,81.58
2023-10-25T14:07:29.527Z,81.72
2023-10-25T14:12:32.666Z,81.85
2023-10-25T14:17:34.112Z,81.58
2023-10-25T14:22:35.558Z,81.34
2023-10-25T14:27:38.565Z,80.99
2023-10-25T14:32:40.074Z,81.49
2023-10-25T14:37:42.465Z,81.36
2023-10-25T14:42:45.410Z,81.12
2023-10-25T14:47:47.021Z,81.22
2023-10-25T14:52:48.631Z,81.22
2023-10-25T14:57:50.019Z,81.02
2023-10-25T15:02:51.503Z,81.23
2023-10-25T15:07:54.225Z,81.23
2023-10-25T15:12:55.619Z,81.21
2023-10-25T15:17:57.190Z,81.17
2023-10-25T15:23:00.900Z,81.17
2023-10-25T15:28:04.594Z,80.78
2023-10-25T15:33:07.841Z,80.59
2023-10-25T15:38:09.219Z,80.71
2023-10-25T15:43:10.587Z,81.05
2023-10-25T15:48:12.057Z,81.30
2023-10-25T15:53:19.527Z,81.44
2023-10-25T15:58:21.308Z,81.78
2023-10-25T16:03:22.821Z,81.54
2023-10-25T16:08:24.363Z,81.75
2023-10-25T16:13:25.750Z,81.68
2023-10-25T16:18:27.237Z,81.52
2023-10-25T16:23:28.674Z,82.37
2023-10-25T16:28:30.065Z,82.59
2023-10-25T16:33:32.333Z,82.50
2023-10-25T16:38:34.268Z,82.62
2023-10-25T16:43:37.123Z,82.88
2023-10-25T16:48:42.113Z,82.60
2023-10-25T16:53:45.993Z,82.69
2023-10-25T16:58:47.700Z,82.52
2023-10-25T17:03:49.251Z,82.37
2023-10-25T17:08:50.874Z,82.62
2023-10-25T17:13:52.621Z,82.29
2023-10-25T17:18:54.261Z,82.29
2023-10-25T17:23:55.795Z,82.31
2023-10-25T17:28:57.763Z,82.51
2023-10-25T17:33:59.484Z,82.31
2023-10-25T17:39:01.179Z,82.38
2023-10-25T17:44:02.590Z,82.29
2023-10-25T17:49:04.069Z,81.92
2023-10-25T17:54:05.674Z,81.76
2023-10-25T17:59:07.111Z,81.76
2023-10-25T18:04:09.288Z,81.63
2023-10-25T18:09:10.827Z,81.60
2023-10-25T18:14:14.560Z,81.55
2023-10-25T18:19:18.359Z,81.53
2023-10-25T18:24:19.928Z,81.57
2023-10-25T18:29:21.724Z,81.45
2023-10-25T18:34:24.032Z,81.36
2023-10-25T18:39:28.275Z,81.41
2023-10-25T18:44:33.583Z,81.18
2023-10-25T18:49:35.578Z,81.14
2023-10-25T18:54:37.010Z,81.17
2023-10-25T18:59:38.827Z,81.42
2023-10-25T19:06:23.730Z,81.43
2023-10-25T19:10:29.743Z,81.27
2023-10-25T19:15:23.680Z,81.21
2023-10-25T19:20:27.051Z,80.88
2023-10-25T19:25:28.630Z,80.97
2023-10-25T19:30:31.162Z,80.43
2023-10-25T19:35:37.028Z,80.69
2023-10-25T19:40:38.743Z,80.77
2023-10-25T19:45:40.635Z,80.88
2023-10-25T19:50:42.183Z,80.63
2023-10-25T19:55:44.055Z,80.36
2023-10-25T20:00:45.606Z,80.56
2023-10-25T20:05:47.025Z,80.83
2023-10-25T20:10:48.975Z,80.84
2023-10-25T20:15:50.348Z,80.91
2023-10-25T20:20:51.838Z,81.19
2023-10-25T20:25:54.749Z,81.01
2023-10-25T20:30:56.174Z,81.21
2023-10-25T20:36:00.105Z,81.65
2023-10-25T20:41:08.649Z,81.19
2023-10-25T20:46:10.293Z,81.05
2023-10-25T20:51:11.768Z,81.13
2023-10-25T20:56:13.154Z,81.03
2023-10-25T21:01:14.594Z,80.98
2023-10-25T21:06:16.112Z,80.68
2023-10-25T21:11:17.569Z,80.93
2023-10-25T21:16:19.049Z,80.82
2023-10-25T21:21:20.562Z,80.80
2023-10-25T21:26:22.089Z,80.69
2023-10-25T21:31:23.874Z,80.40
2023-10-25T21:36:26.743Z,80.90
2023-10-25T21:41:28.211Z,80.63
2023-10-25T21:46:29.652Z,80.70
2023-10-25T21:51:31.114Z,80.58
2023-10-25T21:56:32.516Z,80.75
2023-10-25T22:01:33.933Z,80.79
2023-10-25T22:06:36.447Z,80.66
2023-10-25T22:11:38.596Z,80.62
2023-10-25T22:16:40.634Z,80.72
2023-10-25T22:21:43.011Z,80.57
2023-10-25T22:26:44.500Z,80.04
2023-10-25T22:31:46.311Z,79.64
2023-10-25T22:36:52.091Z,79.35
2023-10-25T22:41:55.412Z,78.92
2023-10-25T22:46:57.212Z,79.01
2023-10-25T22:51:58.697Z,78.67
2023-10-25T22:57:01.494Z,78.92
2023-10-25T23:02:04.444Z,78.47
2023-10-25T23:07:05.903Z,78.19
2023-10-25T23:12:07.776Z,78.40
2023-10-25T23:17:09.189Z,78.33
2023-10-25T23:22:10.722Z,78.31
2023-10-25T23:27:12.158Z,78.04
2023-10-25T23:32:13.623Z,78.12
2023-10-25T23:37:15.221Z,78.08
2023-10-25T23:42:16.631Z,77.76
2023-10-25T23:47:19.351Z,78.24
2023-10-25T23:52:20.764Z,77.98
2023-10-25T23:57:24.553Z,77.63
